createdAt,value
2022-09-30T00:01:19.209Z,98.51
2022-09-30T00:04:24.501Z,99.07
2022-09-30T00:07:27.279Z,99.21
2022-09-30T00:10:30.248Z,99.19
2022-09-30T00:13:35.673Z,99.23
2022-09-30T00:16:39.775Z,98.94
2022-09-30T00:19:42.458Z,99.08
2022-09-30T00:22:45.424Z,98.89
2022-09-30T00:25:48.566Z,98.96
2022-09-30T00:28:52.703Z,99.07
2022-09-30T00:31:56.304Z,99.08
2022-09-30T00:34:59.348Z,99.15
2022-09-30T00:38:02.103Z,99.13
2022-09-30T00:41:05.296Z,99.05
2022-09-30T00:44:45.670Z,99.06
2022-09-30T00:47:53.401Z,99.08
2022-09-30T00:50:55.904Z,99.18
2022-09-30T00:54:02.678Z,99.15
2022-09-30T00:57:08.127Z,99.14
2022-09-30T01:00:11.205Z,99.05
2022-09-30T01:03:14.946Z,99.09
2022-09-30T01:06:19.992Z,99.08
2022-09-30T01:09:23.153Z,99.04
2022-09-30T01:12:26.529Z,99.07
2022-09-30T01:16:07.662Z,99.14
2022-09-30T01:19:41.394Z,99.12
2022-09-30T01:23:00.002Z,99.16
2022-09-30T01:26:35.076Z,99.18
2022-09-30T01:29:55.159Z,99.03
2022-09-30T01:33:14.104Z,99.12
2022-09-30T01:36:27.439Z,99.02
2022-09-30T01:39:52.444Z,98.99
2022-09-30T01:43:07.312Z,98.94
2022-09-30T01:46:25.292Z,98.84
2022-09-30T01:49:32.538Z,98.88
2022-09-30T01:52:38.876Z,99.09
2022-09-30T01:55:49.987Z,99.28
2022-09-30T01:59:03.499Z,99.33
2022-09-30T02:02:10.883Z,99.32
2022-09-30T02:05:24.927Z,99.36
2022-09-30T02:08:43.655Z,99.50
2022-09-30T02:11:46.672Z,99.42
2022-09-30T02:14:55.996Z,99.50
2022-09-30T02:18:04.504Z,99.56
2022-09-30T02:21:09.299Z,99.51
2022-09-30T02:24:15.327Z,99.56
2022-09-30T02:27:28.287Z,99.84
2022-09-30T02:30:33.908Z,99.79
2022-09-30T02:33:51.044Z,100.00
2022-09-30T02:37:03.413Z,99.92
2022-09-30T02:40:16.957Z,99.98
2022-09-30T02:43:20.895Z,100.00
2022-09-30T02:46:42.609Z,100.00
2022-09-30T02:49:54.189Z,100.00
2022-09-30T02:53:06.663Z,100.00
2022-09-30T02:56:16.941Z,100.00
2022-09-30T02:59:20.601Z,100.00
2022-09-30T03:02:23.485Z,100.00
2022-09-30T03:05:28.787Z,100.00
2022-09-30T03:08:32.322Z,100.00
2022-09-30T03:11:37.571Z,100.00
2022-09-30T03:14:43.963Z,100.00
2022-09-30T03:18:01.028Z,100.00
2022-09-30T03:21:09.585Z,100.00
2022-09-30T03:24:28.155Z,100.00
2022-09-30T03:28:00.549Z,100.00
2022-09-30T03:31:32.979Z,100.00
2022-09-30T03:35:11.799Z,100.00
2022-09-30T03:38:20.291Z,100.00
2022-09-30T03:41:45.517Z,100.00
2022-09-30T03:45:06.907Z,100.00
2022-09-30T03:48:14.451Z,100.00
2022-09-30T03:51:17.863Z,100.00
2022-09-30T03:54:22.939Z,100.00
2022-09-30T03:57:28.954Z,100.00
2022-09-30T04:00:32.966Z,100.00
2022-09-30T04:03:36.006Z,100.00
2022-09-30T04:06:40.237Z,100.00
2022-09-30T04:09:43.985Z,100.00
2022-09-30T04:12:46.723Z,100.00
2022-09-30T04:15:55.250Z,100.00
2022-09-30T04:18:59.263Z,100.00
2022-09-30T04:22:04.816Z,100.00
2022-09-30T04:25:10.039Z,100.00
2022-09-30T04:28:18.923Z,100.00
2022-09-30T04:31:22.904Z,100.00
2022-09-30T04:34:34.937Z,100.00
2022-09-30T04:37:41.927Z,100.00
2022-09-30T04:40:45.997Z,100.00
2022-09-30T04:43:49.927Z,100.00
2022-09-30T04:46:53.174Z,100.00
2022-09-30T04:49:56.935Z,100.00
2022-09-30T04:53:01.046Z,100.00
2022-09-30T04:56:08.122Z,100.00
2022-09-30T04:59:11.658Z,100.00
2022-09-30T05:02:17.151Z,100.00
2022-09-30T05:05:20.420Z,100.00
2022-09-30T05:08:28.291Z,100.00
2022-09-30T05:11:32.200Z,100.00
2022-09-30T05:14:39.004Z,100.00
2022-09-30T05:17:43.514Z,100.00
2022-09-30T05:20:49.544Z,100.00
2022-09-30T05:23:54.083Z,100.00
2022-09-30T05:26:58.947Z,100.00
2022-09-30T05:30:04.355Z,100.00
2022-09-30T05:33:09.940Z,100.00
2022-09-30T05:36:15.422Z,100.00
2022-09-30T05:39:18.419Z,100.00
2022-09-30T05:42:23.372Z,100.00
2022-09-30T05:45:28.455Z,100.00
2022-09-30T05:48:35.506Z,100.00
2022-09-30T05:51:38.512Z,100.00
2022-09-30T05:54:45.042Z,100.00
2022-09-30T05:57:49.928Z,100.00
2022-09-30T06:00:55.483Z,100.00
2022-09-30T06:03:59.462Z,100.00
2022-09-30T06:07:10.380Z,100.00
2022-09-30T06:10:16.142Z,100.00
2022-09-30T06:13:21.876Z,100.00
2022-09-30T06:16:29.053Z,100.00
2022-09-30T06:19:33.087Z,100.00
2022-09-30T06:22:37.324Z,100.00
2022-09-30T06:25:41.588Z,100.00
2022-09-30T06:28:45.802Z,99.97
2022-09-30T06:31:50.617Z,99.79
2022-09-30T06:34:56.853Z,99.74
2022-09-30T06:38:01.653Z,99.80
2022-09-30T06:41:12.114Z,99.77
2022-09-30T06:44:15.864Z,99.69
2022-09-30T06:47:25.306Z,99.71
2022-09-30T06:50:31.266Z,99.73
2022-09-30T06:53:37.871Z,99.77
2022-09-30T06:56:44.137Z,99.73
2022-09-30T06:59:47.830Z,99.78
2022-09-30T07:02:51.495Z,99.81
2022-09-30T07:06:00.032Z,99.73
2022-09-30T07:09:04.468Z,99.61
2022-09-30T07:12:10.091Z,99.57
2022-09-30T07:15:14.586Z,99.53
2022-09-30T07:18:20.970Z,99.44
2022-09-30T07:21:31.948Z,99.35
2022-09-30T07:24:42.019Z,99.48
2022-09-30T07:27:45.126Z,99.35
2022-09-30T07:30:48.773Z,99.26
2022-09-30T07:33:52.943Z,99.25
2022-09-30T07:36:57.254Z,99.02
2022-09-30T07:40:08.862Z,99.16
2022-09-30T07:43:13.562Z,99.07
2022-09-30T07:46:24.797Z,99.00
2022-09-30T07:49:34.857Z,98.75
2022-09-30T07:52:38.857Z,98.39
2022-09-30T07:55:43.450Z,98.24
2022-09-30T07:58:48.253Z,98.02
2022-09-30T08:01:57.391Z,98.04
2022-09-30T08:05:04.016Z,98.08
2022-09-30T08:08:07.977Z,98.14
2022-09-30T08:11:15.243Z,98.20
2022-09-30T08:14:25.194Z,98.16
2022-09-30T08:17:29.271Z,98.24
2022-09-30T08:20:36.807Z,98.09
2022-09-30T08:23:46.671Z,98.03
2022-09-30T08:26:55.026Z,97.66
2022-09-30T08:30:04.282Z,97.54
2022-09-30T08:33:10.866Z,97.40
2022-09-30T08:36:18.817Z,97.06
2022-09-30T08:39:22.119Z,96.64
2022-09-30T08:42:57.481Z,96.56
2022-09-30T08:46:11.907Z,96.35
2022-09-30T08:49:28.299Z,95.61
2022-09-30T08:52:49.026Z,94.27
2022-09-30T08:55:57.797Z,93.21
2022-09-30T08:59:06.060Z,92.13
2022-09-30T09:02:33.060Z,91.65
2022-09-30T09:06:05.999Z,89.09
2022-09-30T09:09:35.083Z,87.65
2022-09-30T09:12:51.135Z,89.28
2022-09-30T09:16:24.090Z,88.81
2022-09-30T09:19:38.700Z,87.34
2022-09-30T09:22:47.163Z,86.40
2022-09-30T09:25:53.572Z,86.71
2022-09-30T09:29:22.758Z,86.81
2022-09-30T09:32:27.806Z,87.56
2022-09-30T09:35:36.794Z,88.74
2022-09-30T09:39:03.973Z,89.46
2022-09-30T09:42:29.933Z,90.48
2022-09-30T09:45:43.972Z,91.39
2022-09-30T09:48:48.901Z,90.34
2022-09-30T09:52:06.034Z,90.20
2022-09-30T09:55:11.569Z,89.27
2022-09-30T09:58:19.001Z,89.91
2022-09-30T10:01:32.942Z,89.86
2022-09-30T10:04:50.870Z,90.26
2022-09-30T10:08:15.052Z,90.40
2022-09-30T10:11:26.150Z,90.40
2022-09-30T10:14:32.552Z,90.31
2022-09-30T10:17:37.762Z,90.72
2022-09-30T10:20:50.483Z,90.86
2022-09-30T10:23:54.743Z,89.87
2022-09-30T10:26:57.728Z,89.09
2022-09-30T10:30:02.586Z,88.83
2022-09-30T10:33:50.871Z,89.52
2022-09-30T10:37:16.366Z,89.76
2022-09-30T10:40:22.872Z,89.17
2022-09-30T10:43:34.898Z,88.45
2022-09-30T10:46:40.289Z,86.25
2022-09-30T10:49:46.571Z,85.08
2022-09-30T10:53:02.325Z,85.51
2022-09-30T10:56:08.008Z,85.97
2022-09-30T10:59:28.998Z,86.24
2022-09-30T11:03:04.952Z,87.32
2022-09-30T11:06:13.890Z,87.66
2022-09-30T11:09:43.099Z,87.52
2022-09-30T11:12:52.239Z,87.38
2022-09-30T11:16:06.288Z,86.84
2022-09-30T11:19:34.947Z,86.27
2022-09-30T11:23:07.128Z,85.31
2022-09-30T11:26:42.328Z,83.78
2022-09-30T11:30:00.879Z,84.79
2022-09-30T11:33:28.100Z,85.66
2022-09-30T11:36:42.977Z,85.66
2022-09-30T11:39:55.454Z,85.06
2022-09-30T11:43:09.029Z,83.74
2022-09-30T11:46:43.883Z,83.35
2022-09-30T11:50:18.908Z,81.28
2022-09-30T11:53:26.939Z,82.35
2022-09-30T11:56:49.944Z,81.39
2022-09-30T12:00:05.879Z,79.16
2022-09-30T12:03:26.169Z,78.54
2022-09-30T12:06:42.887Z,79.43
2022-09-30T12:09:50.628Z,79.56
2022-09-30T12:12:58.832Z,79.38
2022-09-30T12:16:05.904Z,78.75
2022-09-30T12:19:23.010Z,79.08
2022-09-30T12:22:52.804Z,79.26
2022-09-30T12:26:00.904Z,79.47
2022-09-30T12:29:37.008Z,80.66
2022-09-30T12:32:54.325Z,81.27
2022-09-30T12:36:40.076Z,81.29
2022-09-30T12:40:04.407Z,82.26
2022-09-30T12:43:32.909Z,80.64
2022-09-30T12:47:28.735Z,81.93
2022-09-30T12:50:43.202Z,81.90
2022-09-30T12:53:53.844Z,82.27
2022-09-30T12:57:01.903Z,83.16
2022-09-30T13:00:14.885Z,83.93
2022-09-30T13:03:29.090Z,85.49
2022-09-30T13:06:54.027Z,87.72
2022-09-30T13:10:01.837Z,88.59
2022-09-30T13:13:12.883Z,89.82
2022-09-30T13:16:56.906Z,91.03
2022-09-30T13:20:15.755Z,91.87
2022-09-30T13:23:55.957Z,92.22
2022-09-30T13:27:15.430Z,93.03
2022-09-30T13:30:19.823Z,93.31
2022-09-30T13:33:41.987Z,93.17
2022-09-30T13:36:51.009Z,93.35
2022-09-30T13:39:57.081Z,93.17
2022-09-30T13:43:02.994Z,92.87
2022-09-30T13:46:20.000Z,93.14
2022-09-30T13:49:33.023Z,92.73
2022-09-30T13:52:41.876Z,92.46
2022-09-30T13:55:50.580Z,91.82
2022-09-30T13:59:26.813Z,91.15
2022-09-30T14:02:38.798Z,90.84
2022-09-30T14:06:10.837Z,90.84
2022-09-30T14:09:45.063Z,91.13
2022-09-30T14:13:10.858Z,89.53
2022-09-30T14:16:44.890Z,88.28
2022-09-30T14:20:23.851Z,87.38
2022-09-30T14:23:28.038Z,87.92
2022-09-30T14:27:02.635Z,86.21
2022-09-30T14:30:06.540Z,86.41
2022-09-30T14:33:27.828Z,85.86
2022-09-30T14:36:44.980Z,86.26
2022-09-30T14:39:55.749Z,86.30
2022-09-30T14:43:05.961Z,86.33
2022-09-30T14:46:28.236Z,86.49
2022-09-30T14:49:36.841Z,86.64
2022-09-30T14:52:45.395Z,85.86
2022-09-30T14:55:57.047Z,87.35
2022-09-30T14:59:20.837Z,87.65
2022-09-30T15:02:33.916Z,86.07
2022-09-30T15:05:41.839Z,86.92
2022-09-30T15:08:47.123Z,86.99
2022-09-30T15:11:55.137Z,87.91
2022-09-30T15:15:04.832Z,87.61
2022-09-30T15:18:37.761Z,87.72
2022-09-30T15:21:57.764Z,88.47
2022-09-30T15:25:01.065Z,88.13
2022-09-30T15:28:11.577Z,89.05
2022-09-30T15:31:29.876Z,89.44
2022-09-30T15:34:38.844Z,90.18
2022-09-30T15:37:49.903Z,90.59
2022-09-30T15:41:07.544Z,91.20
2022-09-30T15:44:20.879Z,91.52
2022-09-30T15:47:27.222Z,91.71
2022-09-30T15:50:50.439Z,91.99
2022-09-30T15:54:06.765Z,92.56
2022-09-30T15:57:40.376Z,92.85
2022-09-30T16:00:53.962Z,93.08
2022-09-30T16:04:14.428Z,93.20
2022-09-30T16:07:26.381Z,93.33
2022-09-30T16:10:32.248Z,93.64
2022-09-30T16:13:39.155Z,94.01
2022-09-30T16:16:54.716Z,94.34
2022-09-30T16:20:13.661Z,94.69
2022-09-30T16:23:30.531Z,94.95
2022-09-30T16:26:45.460Z,95.20
2022-09-30T16:29:54.886Z,95.18
2022-09-30T16:33:04.456Z,95.55
2022-09-30T16:36:11.830Z,95.86
2022-09-30T16:39:20.012Z,95.97
2022-09-30T16:42:33.065Z,96.20
2022-09-30T16:45:40.887Z,96.47
2022-09-30T16:49:00.225Z,96.48
2022-09-30T16:52:12.058Z,96.42
2022-09-30T16:55:31.102Z,96.50
2022-09-30T16:58:36.700Z,96.48
2022-09-30T17:01:52.819Z,96.43
2022-09-30T17:04:59.875Z,96.47
2022-09-30T17:08:05.111Z,96.55
2022-09-30T17:11:11.134Z,96.46
2022-09-30T17:14:17.863Z,96.52
2022-09-30T17:17:21.879Z,96.48
2022-09-30T17:20:28.202Z,96.72
2022-09-30T17:23:40.879Z,96.52
2022-09-30T17:26:47.971Z,96.43
2022-09-30T17:30:03.806Z,96.68
2022-09-30T17:33:17.499Z,96.72
2022-09-30T17:36:29.023Z,96.97
2022-09-30T17:39:41.886Z,97.35
2022-09-30T17:43:10.806Z,97.36
2022-09-30T17:46:21.259Z,97.30
2022-09-30T17:49:26.809Z,97.25
2022-09-30T17:52:39.898Z,97.28
2022-09-30T17:55:53.868Z,97.22
2022-09-30T17:59:07.084Z,97.19
2022-09-30T18:02:12.869Z,97.13
2022-09-30T18:05:22.884Z,97.16
2022-09-30T18:08:40.766Z,97.14
2022-09-30T18:11:51.780Z,97.20
2022-09-30T18:15:02.819Z,97.07
2022-09-30T18:18:10.861Z,97.39
2022-09-30T18:21:19.822Z,97.51
2022-09-30T18:24:45.915Z,97.24
2022-09-30T18:28:01.183Z,97.05
2022-09-30T18:31:06.956Z,97.21
2022-09-30T18:34:16.403Z,97.38
2022-09-30T18:37:34.854Z,97.51
2022-09-30T18:40:49.789Z,97.42
2022-09-30T18:43:59.436Z,97.37
2022-09-30T18:47:05.878Z,97.28
2022-09-30T18:50:21.962Z,97.40
2022-09-30T18:53:34.509Z,97.30
2022-09-30T18:56:51.925Z,97.79
2022-09-30T18:59:57.872Z,97.76
2022-09-30T19:03:15.876Z,97.49
2022-09-30T19:06:19.853Z,97.61
2022-09-30T19:09:26.662Z,97.42
2022-09-30T19:12:33.971Z,97.51
2022-09-30T19:15:39.528Z,97.64
2022-09-30T19:18:49.211Z,97.41
2022-09-30T19:21:54.864Z,97.43
2022-09-30T19:25:00.342Z,97.28
2022-09-30T19:28:09.068Z,97.57
2022-09-30T19:31:20.275Z,97.63
2022-09-30T19:34:31.894Z,97.52
2022-09-30T19:37:36.421Z,97.40
2022-09-30T19:40:55.107Z,97.24
2022-09-30T19:44:02.306Z,97.09
2022-09-30T19:47:09.682Z,97.39
2022-09-30T19:50:20.819Z,97.31
2022-09-30T19:53:30.856Z,97.17
2022-09-30T19:56:35.606Z,97.16
2022-09-30T19:59:50.160Z,97.07
2022-09-30T20:02:59.889Z,97.19
2022-09-30T20:06:15.792Z,97.19
2022-09-30T20:09:21.006Z,97.26
2022-09-30T20:12:24.244Z,97.40
2022-09-30T20:15:46.353Z,97.74
2022-09-30T20:18:50.484Z,97.53
2022-09-30T20:22:05.342Z,97.50
2022-09-30T20:25:13.360Z,97.47
2022-09-30T20:28:16.526Z,97.68
2022-09-30T20:31:30.408Z,97.53
2022-09-30T20:34:38.757Z,97.83
2022-09-30T20:37:44.924Z,97.96
2022-09-30T20:40:56.422Z,98.15
2022-09-30T20:43:59.652Z,98.18
2022-09-30T20:47:04.853Z,97.92
2022-09-30T20:50:10.406Z,97.93
2022-09-30T20:53:14.989Z,98.29
2022-09-30T20:56:20.023Z,98.61
2022-09-30T20:59:24.912Z,98.51
2022-09-30T21:02:30.566Z,98.51
2022-09-30T21:05:34.717Z,98.57
2022-09-30T21:08:49.789Z,98.40
2022-09-30T21:11:59.889Z,98.36
2022-09-30T21:15:06.099Z,98.39
2022-09-30T21:18:09.552Z,98.16
2022-09-30T21:21:15.247Z,98.16
2022-09-30T21:24:18.657Z,98.01
2022-09-30T21:27:22.749Z,97.94
2022-09-30T21:30:33.743Z,97.81
2022-09-30T21:33:45.810Z,97.81
2022-09-30T21:36:54.865Z,97.82
2022-09-30T21:39:58.991Z,98.05
2022-09-30T21:43:01.863Z,98.17
2022-09-30T21:46:08.039Z,98.13
2022-09-30T21:49:20.835Z,98.43
2022-09-30T21:52:24.056Z,98.49
2022-09-30T21:55:28.181Z,98.40
2022-09-30T21:58:34.252Z,98.47
2022-09-30T22:01:38.402Z,98.45
2022-09-30T22:04:41.866Z,98.37
2022-09-30T22:07:44.951Z,98.44
2022-09-30T22:10:50.819Z,98.61
2022-09-30T22:13:55.555Z,98.54
2022-09-30T22:16:59.546Z,98.52
2022-09-30T22:20:04.009Z,98.63
2022-09-30T22:23:07.059Z,98.49
2022-09-30T22:26:18.602Z,98.38
2022-09-30T22:29:21.612Z,98.53
2022-09-30T22:32:30.870Z,98.46
2022-09-30T22:35:52.384Z,98.67
2022-09-30T22:38:56.311Z,98.63
2022-09-30T22:41:59.888Z,98.69
2022-09-30T22:45:03.891Z,98.74
2022-09-30T22:48:13.093Z,99.01
2022-09-30T22:51:16.149Z,99.28
2022-09-30T22:54:19.504Z,99.26
2022-09-30T22:57:22.180Z,99.21
2022-09-30T23:00:25.015Z,99.23
2022-09-30T23:03:27.667Z,99.02
2022-09-30T23:06:32.059Z,99.13
2022-09-30T23:09:34.822Z,99.04
2022-09-30T23:12:38.108Z,99.06
2022-09-30T23:15:41.213Z,99.20
2022-09-30T23:18:46.748Z,99.09
2022-09-30T23:21:50.980Z,99.06
2022-09-30T23:25:02.872Z,99.28
2022-09-30T23:28:07.295Z,99.27
2022-09-30T23:31:16.657Z,99.21
2022-09-30T23:34:19.559Z,99.23
2022-09-30T23:37:23.136Z,99.27
2022-09-30T23:40:25.637Z,99.27
2022-09-30T23:43:31.163Z,99.30
2022-09-30T23:46:33.904Z,99.24
2022-09-30T23:49:37.100Z,99.43
2022-09-30T23:52:39.866Z,99.44
2022-09-30T23:55:42.744Z,99.24
2022-09-30T23:58:46.684Z,99.28
